createdAt,value
2023-01-07T00:01:24.930Z,0.90
2023-01-07T00:03:55.333Z,0.70
2023-01-07T00:06:25.867Z,0.98
2023-01-07T00:08:57.429Z,1.00
2023-01-07T00:11:28.765Z,0.82
2023-01-07T00:13:59.985Z,0.80
2023-01-07T00:16:30.649Z,1.40
2023-01-07T00:19:01.247Z,1.35
2023-01-07T00:21:30.718Z,1.13
2023-01-07T00:24:02.934Z,0.85
2023-01-07T00:26:33.973Z,0.80
2023-01-07T00:29:02.484Z,0.90
2023-01-07T00:31:33.544Z,0.80
2023-01-07T00:34:09.040Z,0.80
2023-01-07T00:36:45.024Z,0.90
2023-01-07T00:39:18.387Z,1.20
2023-01-07T00:42:01.572Z,1.90
2023-01-07T00:44:29.980Z,0.93
2023-01-07T00:46:59.107Z,0.75
2023-01-07T00:49:27.515Z,1.10
2023-01-07T00:51:55.742Z,0.90
2023-01-07T00:54:25.659Z,0.90
2023-01-07T00:56:54.172Z,1.02
2023-01-07T00:59:22.381Z,0.70
2023-01-07T01:01:50.676Z,0.82
2023-01-07T01:04:19.066Z,1.10
2023-01-07T01:06:47.410Z,0.80
2023-01-07T01:09:15.714Z,1.00
2023-01-07T01:11:45.254Z,1.15
2023-01-07T01:14:13.527Z,1.10
2023-01-07T01:16:41.724Z,0.88
2023-01-07T01:19:09.903Z,0.95
2023-01-07T01:21:40.971Z,0.90
2023-01-07T01:24:10.300Z,1.05
2023-01-07T01:26:38.814Z,0.80
2023-01-07T01:29:08.406Z,0.80
2023-01-07T01:31:36.980Z,1.40
2023-01-07T01:34:06.309Z,0.98
2023-01-07T01:36:35.735Z,0.90
2023-01-07T01:39:04.872Z,0.80
2023-01-07T01:41:35.442Z,0.68
2023-01-07T01:44:24.407Z,0.98
2023-01-07T01:46:54.327Z,0.77
2023-01-07T01:49:28.672Z,1.08
2023-01-07T01:52:04.010Z,0.80
2023-01-07T01:54:33.689Z,0.68
2023-01-07T01:57:05.915Z,0.90
2023-01-07T02:02:11.089Z,1.05
2023-01-07T02:04:39.842Z,0.80
2023-01-07T02:07:14.875Z,1.00
2023-01-07T02:09:51.609Z,0.85
2023-01-07T02:12:32.040Z,0.90
2023-01-07T02:15:12.124Z,0.93
2023-01-07T02:18:09.681Z,0.93
2023-01-07T02:20:58.302Z,0.70
2023-01-07T02:24:26.342Z,0.80
2023-01-07T02:27:21.134Z,0.80
2023-01-07T02:30:37.171Z,1.23
2023-01-07T02:33:46.166Z,1.00
2023-01-07T02:36:46.381Z,0.70
2023-01-07T02:39:32.015Z,0.80
2023-01-07T02:42:05.567Z,0.80
2023-01-07T02:44:43.322Z,1.02
2023-01-07T02:47:17.961Z,0.75
2023-01-07T02:49:49.688Z,0.75
2023-01-07T02:52:22.787Z,1.00
2023-01-07T02:54:58.343Z,0.80
2023-01-07T02:57:56.297Z,0.90
2023-01-07T03:00:52.737Z,0.82
2023-01-07T03:03:37.535Z,0.77
2023-01-07T03:06:27.832Z,0.82
2023-01-07T03:09:07.398Z,1.17
2023-01-07T03:11:46.084Z,1.02
2023-01-07T03:14:20.708Z,1.05
2023-01-07T03:16:56.183Z,1.20
2023-01-07T03:19:29.656Z,1.10
2023-01-07T03:22:03.417Z,1.23
2023-01-07T03:24:33.553Z,0.90
2023-01-07T03:27:05.451Z,0.95
2023-01-07T03:29:35.677Z,1.23
2023-01-07T03:32:14.384Z,1.25
2023-01-07T03:34:44.622Z,1.40
2023-01-07T03:37:18.490Z,1.25
2023-01-07T03:39:48.605Z,1.08
2023-01-07T03:42:41.858Z,1.20
2023-01-07T03:45:19.369Z,1.30
2023-01-07T03:47:51.347Z,1.13
2023-01-07T03:52:51.656Z,1.40
2023-01-07T03:55:21.634Z,1.10
2023-01-07T03:57:52.095Z,1.20
2023-01-07T04:00:20.570Z,1.20
2023-01-07T04:02:56.566Z,1.35
2023-01-07T04:05:29.453Z,1.33
2023-01-07T04:07:59.635Z,1.10
2023-01-07T04:10:33.002Z,1.02
2023-01-07T04:13:01.290Z,1.23
2023-01-07T04:15:29.473Z,1.23
2023-01-07T04:17:57.993Z,1.40
2023-01-07T04:20:26.849Z,1.33
2023-01-07T04:22:55.655Z,1.23
2023-01-07T04:25:25.912Z,1.65
2023-01-07T04:27:54.275Z,1.20
2023-01-07T04:30:23.597Z,1.17
2023-01-07T04:32:52.296Z,1.00
2023-01-07T04:35:20.513Z,1.30
2023-01-07T04:37:48.737Z,1.20
2023-01-07T04:40:17.412Z,0.93
2023-01-07T04:42:47.259Z,1.30
2023-01-07T04:45:15.861Z,1.00
2023-01-07T04:47:44.425Z,1.27
2023-01-07T04:50:13.722Z,1.00
2023-01-07T04:52:41.999Z,1.00
2023-01-07T04:55:11.958Z,1.13
2023-01-07T04:57:40.383Z,0.82
2023-01-07T05:00:12.421Z,1.10
2023-01-07T05:02:42.187Z,1.05
2023-01-07T05:05:12.611Z,0.93
2023-01-07T05:07:42.005Z,0.80
2023-01-07T05:10:11.441Z,1.35
2023-01-07T05:12:40.086Z,1.13
2023-01-07T05:15:13.453Z,1.42
2023-01-07T05:17:42.890Z,1.10
2023-01-07T05:20:13.577Z,1.20
2023-01-07T05:22:41.985Z,0.95
2023-01-07T05:25:11.371Z,1.25
2023-01-07T05:27:39.831Z,0.85
2023-01-07T05:30:12.947Z,1.30
2023-01-07T05:32:41.239Z,1.10
2023-01-07T05:35:10.485Z,1.13
2023-01-07T05:37:39.170Z,1.20
2023-01-07T05:40:11.378Z,1.10
2023-01-07T05:42:40.205Z,1.27
2023-01-07T05:45:09.994Z,1.20
2023-01-07T05:47:39.606Z,1.38
2023-01-07T05:50:08.827Z,1.10
2023-01-07T05:52:37.022Z,1.15
2023-01-07T05:55:06.401Z,1.20
2023-01-07T05:57:34.975Z,1.20
2023-01-07T06:00:04.026Z,1.33
2023-01-07T06:02:41.436Z,1.30
2023-01-07T06:05:10.761Z,1.20
2023-01-07T06:07:39.030Z,1.10
2023-01-07T06:10:08.146Z,1.20
2023-01-07T06:12:36.343Z,1.58
2023-01-07T06:15:06.363Z,1.73
2023-01-07T06:17:34.715Z,1.25
2023-01-07T06:20:04.535Z,1.30
2023-01-07T06:22:32.759Z,1.30
2023-01-07T06:25:00.900Z,1.15
2023-01-07T06:27:29.111Z,1.33
2023-01-07T06:29:57.281Z,1.45
2023-01-07T06:32:25.588Z,1.15
2023-01-07T06:34:53.925Z,1.10
2023-01-07T06:37:23.491Z,1.40
2023-01-07T06:39:51.929Z,1.20
2023-01-07T06:42:20.065Z,1.35
2023-01-07T06:44:48.270Z,1.27
2023-01-07T06:47:16.669Z,1.00
2023-01-07T06:49:44.814Z,1.45
2023-01-07T06:52:13.047Z,1.25
2023-01-07T06:54:42.641Z,1.35
2023-01-07T06:57:10.844Z,1.58
2023-01-07T06:59:39.023Z,0.90
2023-01-07T07:02:07.244Z,1.20
2023-01-07T07:04:35.498Z,1.35
2023-01-07T07:07:03.688Z,1.20
2023-01-07T07:09:31.884Z,1.02
2023-01-07T07:12:01.468Z,1.13
2023-01-07T07:14:29.988Z,0.90
2023-01-07T07:16:58.158Z,1.10
2023-01-07T07:19:26.500Z,1.30
2023-01-07T07:21:54.811Z,1.10
2023-01-07T07:24:23.072Z,1.02
2023-01-07T07:26:51.739Z,1.10
2023-01-07T07:29:21.943Z,1.13
2023-01-07T07:31:50.166Z,1.50
2023-01-07T07:34:18.359Z,1.10
2023-01-07T07:36:46.599Z,1.02
2023-01-07T07:39:14.993Z,0.80
2023-01-07T07:41:43.483Z,1.10
2023-01-07T07:44:12.145Z,0.98
2023-01-07T07:46:42.312Z,1.00
2023-01-07T07:49:11.900Z,1.02
2023-01-07T07:51:40.309Z,1.20
2023-01-07T07:54:08.511Z,1.02
2023-01-07T07:56:36.718Z,1.50
2023-01-07T07:59:05.173Z,1.42
2023-01-07T08:01:35.284Z,1.00
2023-01-07T08:04:06.272Z,1.40
2023-01-07T08:06:34.472Z,1.00
2023-01-07T08:09:02.767Z,1.13
2023-01-07T08:11:30.927Z,1.10
2023-01-07T08:13:59.103Z,1.20
2023-01-07T08:16:27.681Z,1.27
2023-01-07T08:18:56.154Z,1.20
2023-01-07T08:21:25.691Z,1.35
2023-01-07T08:23:53.943Z,1.10
2023-01-07T08:26:22.416Z,1.45
2023-01-07T08:28:50.597Z,1.58
2023-01-07T08:31:18.854Z,1.80
2023-01-07T08:33:47.166Z,1.52
2023-01-07T08:36:22.497Z,1.35
2023-01-07T08:38:54.603Z,1.20
2023-01-07T08:41:25.044Z,1.50
2023-01-07T08:43:54.740Z,1.40
2023-01-07T08:46:23.101Z,1.45
2023-01-07T08:48:51.373Z,1.50
2023-01-07T08:51:19.655Z,1.30
2023-01-07T08:53:48.813Z,1.40
2023-01-07T08:56:18.420Z,1.10
2023-01-07T08:58:46.628Z,1.30
2023-01-07T09:01:14.899Z,1.35
2023-01-07T09:03:43.198Z,1.00
2023-01-07T09:06:11.565Z,1.42
2023-01-07T09:08:40.376Z,1.67
2023-01-07T09:11:08.646Z,1.10
2023-01-07T09:13:38.318Z,1.23
2023-01-07T09:16:07.518Z,1.23
2023-01-07T09:18:35.924Z,1.10
2023-01-07T09:21:04.123Z,1.15
2023-01-07T09:23:32.324Z,1.20
2023-01-07T09:26:00.569Z,1.40
2023-01-07T09:28:29.040Z,1.00
2023-01-07T09:30:59.942Z,1.20
2023-01-07T09:33:28.139Z,1.13
2023-01-07T09:35:56.193Z,1.10
2023-01-07T09:38:24.266Z,0.98
2023-01-07T09:40:52.613Z,0.88
2023-01-07T09:44:00.713Z,1.10
2023-01-07T09:46:19.919Z,1.00
2023-01-07T09:48:53.911Z,1.10
2023-01-07T09:51:28.430Z,1.20
2023-01-07T09:54:00.442Z,0.90
2023-01-07T09:56:31.754Z,1.10
2023-01-07T09:59:02.790Z,0.95
2023-01-07T10:01:40.302Z,0.90
2023-01-07T10:04:34.240Z,1.02
2023-01-07T10:07:21.969Z,1.00
2023-01-07T10:10:04.847Z,1.13
2023-01-07T10:12:42.773Z,1.00
2023-01-07T10:15:45.556Z,1.10
2023-01-07T10:18:43.578Z,1.10
2023-01-07T10:21:22.065Z,1.10
2023-01-07T10:23:58.911Z,1.17
2023-01-07T10:26:35.705Z,1.15
2023-01-07T10:29:10.652Z,1.10
2023-01-07T10:31:39.265Z,1.30
2023-01-07T10:34:17.047Z,1.20
2023-01-07T10:37:00.187Z,1.08
2023-01-07T10:39:44.225Z,1.15
2023-01-07T10:42:21.602Z,1.00
2023-01-07T10:45:33.784Z,1.30
2023-01-07T10:48:40.326Z,1.30
2023-01-07T10:51:24.485Z,1.20
2023-01-07T10:54:04.539Z,1.05
2023-01-07T10:56:37.609Z,1.30
2023-01-07T10:59:06.166Z,1.50
2023-01-07T11:01:38.622Z,1.23
2023-01-07T11:06:47.945Z,1.15
2023-01-07T11:09:21.243Z,1.00
2023-01-07T11:11:52.264Z,1.00
2023-01-07T11:14:25.038Z,1.42
2023-01-07T11:16:58.388Z,1.25
2023-01-07T11:19:44.114Z,1.20
2023-01-07T11:22:32.058Z,1.45
2023-01-07T11:25:01.816Z,1.48
2023-01-07T11:27:33.341Z,1.48
2023-01-07T11:30:07.195Z,1.63
2023-01-07T11:32:40.305Z,1.60
2023-01-07T11:35:22.692Z,1.90
2023-01-07T11:40:25.165Z,1.85
2023-01-07T11:42:59.550Z,2.55
2023-01-07T11:45:32.938Z,2.30
2023-01-07T11:48:09.404Z,2.40
2023-01-07T11:50:40.994Z,2.30
2023-01-07T11:53:37.786Z,2.58
2023-01-07T11:56:11.088Z,2.50
2023-01-07T11:58:42.214Z,2.42
2023-01-07T12:01:17.469Z,2.35
2023-01-07T12:04:13.760Z,2.38
2023-01-07T12:06:45.403Z,2.20
2023-01-07T12:09:35.638Z,2.08
2023-01-07T12:12:27.871Z,2.00
2023-01-07T12:14:57.837Z,2.58
2023-01-07T12:17:28.593Z,2.40
2023-01-07T12:20:37.029Z,2.47
2023-01-07T12:23:22.111Z,2.28
2023-01-07T12:26:05.823Z,2.40
2023-01-07T12:28:55.003Z,2.65
2023-01-07T12:31:36.118Z,2.55
2023-01-07T12:34:11.698Z,2.28
2023-01-07T12:36:47.702Z,2.60
2023-01-07T12:39:23.317Z,2.03
2023-01-07T12:42:02.209Z,2.20
2023-01-07T12:44:30.578Z,2.50
2023-01-07T12:47:32.506Z,1.98
2023-01-07T12:50:02.734Z,1.90
2023-01-07T12:52:42.245Z,2.45
2023-01-07T12:55:21.108Z,2.10
2023-01-07T12:58:07.414Z,2.10
2023-01-07T13:00:45.000Z,1.92
2023-01-07T13:03:30.760Z,2.33
2023-01-07T13:06:06.615Z,2.33
2023-01-07T13:08:44.314Z,1.92
2023-01-07T13:11:43.138Z,2.40
2023-01-07T13:14:23.459Z,2.03
2023-01-07T13:16:51.786Z,2.10
2023-01-07T13:19:20.406Z,2.17
2023-01-07T13:21:50.601Z,2.03
2023-01-07T13:24:56.241Z,2.60
2023-01-07T13:27:34.484Z,2.00
2023-01-07T13:30:20.278Z,2.00
2023-01-07T13:33:05.787Z,2.17
2023-01-07T13:36:00.632Z,1.98
2023-01-07T13:39:01.596Z,2.03
2023-01-07T13:42:02.479Z,2.53
2023-01-07T13:44:59.140Z,2.00
2023-01-07T13:47:44.062Z,1.90
2023-01-07T13:50:25.965Z,1.88
2023-01-07T13:53:00.868Z,2.13
2023-01-07T13:55:35.723Z,2.13
2023-01-07T13:58:25.195Z,1.83
2023-01-07T14:01:04.947Z,1.92
2023-01-07T14:03:45.516Z,2.15
2023-01-07T14:06:40.548Z,1.75
2023-01-07T14:09:35.197Z,2.03
2023-01-07T14:12:50.232Z,2.08
2023-01-07T14:15:49.128Z,2.00
2023-01-07T14:19:08.161Z,2.30
2023-01-07T14:21:58.715Z,2.95
2023-01-07T14:25:02.787Z,2.45
2023-01-07T14:27:53.691Z,2.47
2023-01-07T14:30:27.099Z,2.63
2023-01-07T14:33:02.318Z,2.35
2023-01-07T14:35:35.749Z,2.13
2023-01-07T14:38:58.574Z,2.38
2023-01-07T14:41:27.078Z,2.53
2023-01-07T14:44:30.556Z,2.20
2023-01-07T14:46:59.023Z,2.13
2023-01-07T14:50:02.267Z,2.45
2023-01-07T14:53:22.182Z,2.20
2023-01-07T14:56:21.065Z,2.30
2023-01-07T14:59:26.478Z,2.10
2023-01-07T15:02:36.472Z,2.25
2023-01-07T15:05:49.630Z,2.08
2023-01-07T15:08:40.965Z,2.00
2023-01-07T15:11:34.767Z,2.10
2023-01-07T15:14:30.298Z,2.33
2023-01-07T15:16:59.135Z,2.38
2023-01-07T15:19:27.619Z,2.25
2023-01-07T15:22:09.159Z,2.10
2023-01-07T15:24:47.500Z,2.10
2023-01-07T15:27:27.833Z,1.80
2023-01-07T15:30:08.460Z,2.55
2023-01-07T15:32:47.027Z,1.98
2023-01-07T15:35:21.021Z,2.30
2023-01-07T15:37:54.820Z,2.20
2023-01-07T15:40:28.079Z,1.70
2023-01-07T15:43:00.384Z,2.38
2023-01-07T15:45:29.828Z,2.40
2023-01-07T15:48:08.640Z,2.40
2023-01-07T15:50:37.667Z,2.25
2023-01-07T15:53:20.423Z,1.92
2023-01-07T15:56:20.731Z,2.03
2023-01-07T15:58:52.555Z,2.00
2023-01-07T16:01:23.334Z,2.30
2023-01-07T16:03:55.524Z,3.20
2023-01-07T16:06:34.761Z,2.20
2023-01-07T16:09:16.434Z,2.08
2023-01-07T16:11:45.438Z,2.72
2023-01-07T16:14:18.348Z,2.28
2023-01-07T16:16:46.750Z,2.25
2023-01-07T16:19:20.756Z,2.55
2023-01-07T16:21:54.272Z,2.00
2023-01-07T16:24:23.056Z,2.15
2023-01-07T16:26:55.186Z,2.50
2023-01-07T16:29:29.219Z,2.20
2023-01-07T16:31:58.144Z,2.55
2023-01-07T16:34:57.317Z,2.47
2023-01-07T16:37:25.829Z,2.22
2023-01-07T16:39:54.802Z,2.42
2023-01-07T16:42:24.455Z,2.15
2023-01-07T16:45:03.707Z,2.47
2023-01-07T16:47:34.591Z,2.25
2023-01-07T16:50:37.075Z,2.75
2023-01-07T16:53:20.974Z,2.38
2023-01-07T16:55:53.192Z,2.33
2023-01-07T16:58:31.879Z,2.60
2023-01-07T17:01:04.731Z,2.22
2023-01-07T17:03:45.430Z,2.70
2023-01-07T17:06:14.660Z,2.42
2023-01-07T17:08:51.263Z,2.72
2023-01-07T17:11:24.440Z,2.40
2023-01-07T17:13:53.837Z,2.65
2023-01-07T17:16:32.494Z,2.10
2023-01-07T17:19:25.515Z,2.30
2023-01-07T17:24:48.176Z,2.58
2023-01-07T17:27:27.405Z,2.60
2023-01-07T17:29:56.133Z,2.42
2023-01-07T17:32:25.902Z,2.80
2023-01-07T17:34:54.248Z,2.15
2023-01-07T17:37:22.516Z,5.30
2023-01-07T17:39:51.495Z,2.55
2023-01-07T17:42:44.316Z,2.92
2023-01-07T17:45:18.497Z,2.20
2023-01-07T17:47:49.602Z,3.80
2023-01-07T17:50:19.912Z,2.45
2023-01-07T17:52:51.217Z,2.30
2023-01-07T17:55:23.259Z,2.28
2023-01-07T17:57:51.632Z,2.60
2023-01-07T18:00:23.396Z,2.50
2023-01-07T18:02:53.922Z,2.07
2023-01-07T18:05:24.979Z,2.67
2023-01-07T18:07:54.019Z,2.53
2023-01-07T18:10:29.412Z,2.90
2023-01-07T18:12:56.687Z,2.33
2023-01-07T18:15:27.917Z,2.35
2023-01-07T18:17:57.745Z,2.67
2023-01-07T18:20:26.022Z,2.40
2023-01-07T18:22:54.655Z,2.90
2023-01-07T18:25:23.877Z,2.20
2023-01-07T18:27:53.311Z,2.53
2023-01-07T18:30:23.498Z,2.60
2023-01-07T18:32:53.984Z,2.45
2023-01-07T18:35:23.999Z,2.65
2023-01-07T18:37:52.607Z,2.63
2023-01-07T18:40:21.274Z,2.33
2023-01-07T18:42:49.935Z,2.63
2023-01-07T18:45:18.635Z,2.03
2023-01-07T18:47:46.958Z,2.38
2023-01-07T18:50:15.993Z,2.50
2023-01-07T18:52:45.888Z,2.92
2023-01-07T18:55:17.326Z,2.60
2023-01-07T18:57:46.113Z,2.40
2023-01-07T19:00:16.429Z,2.22
2023-01-07T19:02:44.772Z,2.40
2023-01-07T19:05:13.510Z,2.20
2023-01-07T19:07:41.862Z,2.17
2023-01-07T19:10:13.297Z,2.30
2023-01-07T19:12:41.591Z,2.30
2023-01-07T19:15:11.332Z,2.42
2023-01-07T19:17:39.734Z,5.43
2023-01-07T19:20:10.269Z,2.33
2023-01-07T19:22:39.007Z,2.40
2023-01-07T19:25:08.763Z,2.15
2023-01-07T19:27:38.321Z,2.50
2023-01-07T19:30:08.418Z,4.43
2023-01-07T19:32:37.244Z,2.40
2023-01-07T19:35:06.637Z,4.75
2023-01-07T19:37:38.148Z,2.40
2023-01-07T19:40:08.509Z,7.93
2023-01-07T19:42:38.250Z,3.45
2023-01-07T19:45:08.231Z,2.80
2023-01-07T19:47:36.663Z,2.15
2023-01-07T19:50:05.660Z,2.28
2023-01-07T19:52:34.058Z,2.47
2023-01-07T19:55:02.471Z,2.33
2023-01-07T19:57:31.682Z,2.35
2023-01-07T20:00:01.867Z,2.30
2023-01-07T20:02:33.336Z,2.15
2023-01-07T20:05:01.797Z,2.00
2023-01-07T20:07:34.052Z,2.03
2023-01-07T20:10:02.584Z,2.00
2023-01-07T20:12:30.762Z,1.77
2023-01-07T20:15:00.580Z,2.10
2023-01-07T20:17:29.240Z,1.80
2023-01-07T20:19:57.708Z,2.00
2023-01-07T20:22:26.514Z,1.88
2023-01-07T20:24:54.804Z,1.67
2023-01-07T20:27:23.101Z,1.60
2023-01-07T20:29:51.457Z,1.95
2023-01-07T20:32:21.607Z,1.60
2023-01-07T20:34:50.309Z,1.90
2023-01-07T20:37:18.755Z,1.80
2023-01-07T20:39:47.016Z,1.67
2023-01-07T20:42:15.217Z,1.90
2023-01-07T20:44:43.933Z,1.60
2023-01-07T20:47:12.288Z,1.63
2023-01-07T20:49:41.963Z,1.42
2023-01-07T20:52:10.599Z,1.40
2023-01-07T20:54:38.963Z,1.30
2023-01-07T20:57:07.474Z,1.20
2023-01-07T20:59:35.997Z,1.10
2023-01-07T21:02:04.667Z,1.65
2023-01-07T21:04:33.158Z,1.17
2023-01-07T21:07:02.934Z,1.40
2023-01-07T21:09:31.349Z,1.33
2023-01-07T21:11:59.567Z,1.20
2023-01-07T21:14:27.969Z,1.00
2023-01-07T21:16:57.198Z,1.10
2023-01-07T21:19:25.776Z,1.15
2023-01-07T21:21:54.258Z,1.25
2023-01-07T21:24:24.249Z,1.30
2023-01-07T21:26:52.628Z,1.20
2023-01-07T21:29:21.339Z,1.40
2023-01-07T21:31:50.132Z,1.20
2023-01-07T21:34:18.692Z,1.10
2023-01-07T21:36:47.011Z,1.48
2023-01-07T21:39:15.539Z,1.77
2023-01-07T21:41:45.628Z,2.65
2023-01-07T21:44:14.688Z,1.50
2023-01-07T21:46:43.123Z,1.40
2023-01-07T21:49:11.878Z,1.38
2023-01-07T21:51:40.271Z,1.27
2023-01-07T21:54:08.844Z,1.40
2023-01-07T21:56:37.283Z,1.40
2023-01-07T21:59:07.958Z,1.10
2023-01-07T22:01:36.917Z,1.13
2023-01-07T22:04:05.453Z,1.17
2023-01-07T22:06:36.179Z,1.38
2023-01-07T22:09:07.344Z,1.05
2023-01-07T22:11:38.723Z,1.58
2023-01-07T22:14:13.321Z,1.52
2023-01-07T22:16:41.773Z,1.40
2023-01-07T22:19:11.521Z,1.00
2023-01-07T22:21:40.234Z,1.40
2023-01-07T22:24:08.977Z,1.20
2023-01-07T22:26:37.710Z,1.40
2023-01-07T22:29:10.169Z,1.45
2023-01-07T22:31:39.366Z,1.75
2023-01-07T22:34:09.810Z,1.30
2023-01-07T22:36:44.288Z,1.45
2023-01-07T22:39:18.612Z,1.20
2023-01-07T22:41:47.701Z,1.30
2023-01-07T22:44:21.043Z,1.20
2023-01-07T22:46:53.317Z,1.40
2023-01-07T22:49:25.580Z,1.20
2023-01-07T22:51:53.997Z,1.30
2023-01-07T22:54:22.880Z,1.13
2023-01-07T22:56:52.315Z,1.33
2023-01-07T22:59:22.022Z,1.30
2023-01-07T23:01:50.639Z,1.40
2023-01-07T23:04:18.970Z,1.50
2023-01-07T23:06:47.270Z,1.55
2023-01-07T23:09:15.823Z,1.88
2023-01-07T23:11:50.753Z,1.75
2023-01-07T23:14:23.225Z,1.65
2023-01-07T23:16:52.675Z,2.10
2023-01-07T23:19:22.552Z,2.03
2023-01-07T23:21:55.453Z,1.95
2023-01-07T23:24:24.850Z,1.88
2023-01-07T23:26:56.949Z,1.80
2023-01-07T23:29:26.760Z,1.98
2023-01-07T23:31:55.180Z,1.95
2023-01-07T23:34:23.492Z,2.13
2023-01-07T23:36:51.856Z,2.28
2023-01-07T23:39:20.177Z,2.00
2023-01-07T23:41:48.786Z,1.85
2023-01-07T23:44:18.651Z,1.95
2023-01-07T23:46:48.671Z,2.20
2023-01-07T23:49:17.073Z,2.80
2023-01-07T23:51:45.522Z,2.05
2023-01-07T23:54:13.939Z,2.13
2023-01-07T23:56:42.532Z,2.45
2023-01-07T23:59:11.280Z,2.08
